sensor_id;sensor_type;location;lat;lon;timestamp;pressure;altitude;pressure_sealevel;temperature;humidity
12360;BME280;6244;51.460;7.090;2023-08-06T00:01:50;99564.84;;;16.07;89.19
12360;BME280;6244;51.460;7.090;2023-08-06T00:06:46;99559.69;;;16.05;88.28
12360;BME280;6244;51.460;7.090;2023-08-06T00:11:43;99562.75;;;16.10;88.56
12360;BME280;6244;51.460;7.090;2023-08-06T00:16:43;99555.78;;;16.09;88.48
12360;BME280;6244;51.460;7.090;2023-08-06T00:21:41;99557.31;;;16.12;88.36
12360;BME280;6244;51.460;7.090;2023-08-06T00:26:37;99552.16;;;16.10;88.52
12360;BME280;6244;51.460;7.090;2023-08-06T00:31:34;99554.00;;;15.91;88.95
12360;BME280;6244;51.460;7.090;2023-08-06T00:36:30;99535.72;;;15.97;88.34
12360;BME280;6244;51.460;7.090;2023-08-06T00:41:28;99535.59;;;15.99;87.88
12360;BME280;6244;51.460;7.090;2023-08-06T00:46:25;99529.47;;;15.98;88.71
12360;BME280;6244;51.460;7.090;2023-08-06T00:51:23;99523.47;;;16.06;87.08
12360;BME280;6244;51.460;7.090;2023-08-06T00:56:20;99531.41;;;16.06;87.94
12360;BME280;6244;51.460;7.090;2023-08-06T01:01:18;99518.47;;;16.12;87.17
12360;BME280;6244;51.460;7.090;2023-08-06T01:06:16;99512.47;;;16.10;86.72
12360;BME280;6244;51.460;7.090;2023-08-06T01:16:35;99514.03;;;16.03;87.69
12360;BME280;6244;51.460;7.090;2023-08-06T01:21:33;99511.38;;;16.13;87.67
12360;BME280;6244;51.460;7.090;2023-08-06T01:26:33;99519.31;;;16.03;88.19
12360;BME280;6244;51.460;7.090;2023-08-06T01:31:36;99512.91;;;15.96;89.03
12360;BME280;6244;51.460;7.090;2023-08-06T01:36:34;99497.47;;;16.01;89.03
12360;BME280;6244;51.460;7.090;2023-08-06T01:41:31;99509.16;;;15.79;87.40
12360;BME280;6244;51.460;7.090;2023-08-06T01:46:28;99498.28;;;15.73;87.90
12360;BME280;6244;51.460;7.090;2023-08-06T01:51:24;99497.00;;;15.38;87.92
12360;BME280;6244;51.460;7.090;2023-08-06T01:56:22;99496.00;;;15.49;89.06
12360;BME280;6244;51.460;7.090;2023-08-06T02:01:19;99494.06;;;15.41;89.50
12360;BME280;6244;51.460;7.090;2023-08-06T02:06:15;99483.38;;;15.43;89.32
12360;BME280;6244;51.460;7.090;2023-08-06T02:11:12;99497.47;;;15.63;89.63
12360;BME280;6244;51.460;7.090;2023-08-06T02:16:10;99478.09;;;15.62;88.72
12360;BME280;6244;51.460;7.090;2023-08-06T02:21:06;99478.53;;;15.77;88.44
12360;BME280;6244;51.460;7.090;2023-08-06T02:26:03;99475.03;;;15.57;87.98
12360;BME280;6244;51.460;7.090;2023-08-06T02:31:00;99473.47;;;15.25;89.67
12360;BME280;6244;51.460;7.090;2023-08-06T02:36:01;99479.44;;;15.37;88.99
12360;BME280;6244;51.460;7.090;2023-08-06T02:41:02;99470.69;;;15.37;88.64
12360;BME280;6244;51.460;7.090;2023-08-06T02:45:59;99468.47;;;15.42;89.18
12360;BME280;6244;51.460;7.090;2023-08-06T02:50:57;99454.16;;;15.54;89.41
12360;BME280;6244;51.460;7.090;2023-08-06T02:55:56;99452.75;;;15.31;89.42
12360;BME280;6244;51.460;7.090;2023-08-06T03:01:00;99441.31;;;15.11;89.55
12360;BME280;6244;51.460;7.090;2023-08-06T03:05:58;99438.97;;;15.17;90.28
12360;BME280;6244;51.460;7.090;2023-08-06T03:10:54;99429.38;;;15.26;89.99
12360;BME280;6244;51.460;7.090;2023-08-06T03:15:53;99426.88;;;15.44;89.66
12360;BME280;6244;51.460;7.090;2023-08-06T03:20:50;99422.56;;;15.33;89.00
12360;BME280;6244;51.460;7.090;2023-08-06T03:25:46;99424.09;;;15.26;89.56
12360;BME280;6244;51.460;7.090;2023-08-06T03:30:43;99426.03;;;15.34;89.87
12360;BME280;6244;51.460;7.090;2023-08-06T03:35:41;99412.97;;;15.51;88.14
12360;BME280;6244;51.460;7.090;2023-08-06T03:40:37;99418.50;;;15.10;87.76
12360;BME280;6244;51.460;7.090;2023-08-06T03:45:34;99417.97;;;15.35;88.79
12360;BME280;6244;51.460;7.090;2023-08-06T03:50:30;99413.78;;;15.13;87.23
12360;BME280;6244;51.460;7.090;2023-08-06T03:55:28;99419.63;;;15.17;89.00
12360;BME280;6244;51.460;7.090;2023-08-06T04:00:25;99416.03;;;15.27;88.39
12360;BME280;6244;51.460;7.090;2023-08-06T04:05:21;99413.25;;;15.29;88.31
12360;BME280;6244;51.460;7.090;2023-08-06T04:10:18;99406.84;;;15.41;87.97
12360;BME280;6244;51.460;7.090;2023-08-06T04:15:16;99405.59;;;15.45;87.26
12360;BME280;6244;51.460;7.090;2023-08-06T04:20:12;99410.03;;;15.54;86.57
12360;BME280;6244;51.460;7.090;2023-08-06T04:25:09;99410.22;;;15.63;85.80
12360;BME280;6244;51.460;7.090;2023-08-06T04:30:07;99415.63;;;15.61;87.32
12360;BME280;6244;51.460;7.090;2023-08-06T04:35:06;99413.22;;;15.58;86.66
12360;BME280;6244;51.460;7.090;2023-08-06T04:40:03;99408.78;;;15.58;86.70
12360;BME280;6244;51.460;7.090;2023-08-06T04:45:00;99405.88;;;15.62;85.82
12360;BME280;6244;51.460;7.090;2023-08-06T04:49:57;99414.50;;;15.54;85.92
12360;BME280;6244;51.460;7.090;2023-08-06T04:54:55;99412.69;;;15.45;86.31
12360;BME280;6244;51.460;7.090;2023-08-06T04:59:51;99404.75;;;15.54;85.62
12360;BME280;6244;51.460;7.090;2023-08-06T05:04:48;99414.63;;;15.52;86.26
12360;BME280;6244;51.460;7.090;2023-08-06T05:09:45;99414.09;;;15.39;85.33
12360;BME280;6244;51.460;7.090;2023-08-06T05:14:42;99411.56;;;15.18;85.88
12360;BME280;6244;51.460;7.090;2023-08-06T05:19:39;99415.03;;;15.19;87.01
12360;BME280;6244;51.460;7.090;2023-08-06T05:24:35;99436.03;;;15.20;87.11
12360;BME280;6244;51.460;7.090;2023-08-06T05:29:32;99431.06;;;15.27;86.97
12360;BME280;6244;51.460;7.090;2023-08-06T05:34:30;99437.72;;;15.21;86.56
12360;BME280;6244;51.460;7.090;2023-08-06T05:39:26;99445.38;;;15.34;87.13
12360;BME280;6244;51.460;7.090;2023-08-06T05:44:23;99435.91;;;15.41;86.41
12360;BME280;6244;51.460;7.090;2023-08-06T05:49:20;99441.66;;;15.66;86.38
12360;BME280;6244;51.460;7.090;2023-08-06T05:54:17;99444.09;;;15.96;86.34
12360;BME280;6244;51.460;7.090;2023-08-06T05:59:14;99446.06;;;15.84;84.07
12360;BME280;6244;51.460;7.090;2023-08-06T06:04:10;99450.53;;;15.94;84.46
12360;BME280;6244;51.460;7.090;2023-08-06T06:09:07;99448.69;;;16.04;84.81
12360;BME280;6244;51.460;7.090;2023-08-06T06:14:05;99461.50;;;15.99;83.75
12360;BME280;6244;51.460;7.090;2023-08-06T06:19:01;99467.25;;;15.75;84.01
12360;BME280;6244;51.460;7.090;2023-08-06T06:23:58;99461.94;;;15.75;84.11
12360;BME280;6244;51.460;7.090;2023-08-06T06:28:54;99460.88;;;16.24;83.15
12360;BME280;6244;51.460;7.090;2023-08-06T06:33:52;99456.19;;;16.08;82.74
12360;BME280;6244;51.460;7.090;2023-08-06T06:38:49;99460.22;;;16.22;81.37
12360;BME280;6244;51.460;7.090;2023-08-06T06:43:46;99468.06;;;16.04;81.68
12360;BME280;6244;51.460;7.090;2023-08-06T06:48:42;99458.03;;;16.45;82.17
12360;BME280;6244;51.460;7.090;2023-08-06T06:53:40;99469.94;;;16.31;82.21
12360;BME280;6244;51.460;7.090;2023-08-06T06:58:37;99464.16;;;16.55;82.29
12360;BME280;6244;51.460;7.090;2023-08-06T07:03:34;99464.72;;;16.49;81.70
12360;BME280;6244;51.460;7.090;2023-08-06T07:08:30;99465.00;;;16.46;81.23
12360;BME280;6244;51.460;7.090;2023-08-06T07:13:28;99467.31;;;16.96;81.71
12360;BME280;6244;51.460;7.090;2023-08-06T07:18:25;99478.19;;;17.20;79.92
12360;BME280;6244;51.460;7.090;2023-08-06T07:23:22;99476.34;;;17.66;78.57
12360;BME280;6244;51.460;7.090;2023-08-06T07:28:19;99476.59;;;17.90;76.96
12360;BME280;6244;51.460;7.090;2023-08-06T07:33:17;99476.53;;;18.08;76.19
12360;BME280;6244;51.460;7.090;2023-08-06T07:38:13;99473.06;;;18.08;75.51
12360;BME280;6244;51.460;7.090;2023-08-06T07:43:10;99475.94;;;18.14;75.56
12360;BME280;6244;51.460;7.090;2023-08-06T07:48:07;99474.03;;;18.33;73.61
12360;BME280;6244;51.460;7.090;2023-08-06T07:53:04;99491.19;;;17.95;72.66
12360;BME280;6244;51.460;7.090;2023-08-06T07:58:01;99490.38;;;17.94;72.70
12360;BME280;6244;51.460;7.090;2023-08-06T08:02:57;99490.38;;;17.94;73.90
12360;BME280;6244;51.460;7.090;2023-08-06T08:07:54;99494.28;;;18.08;74.13
12360;BME280;6244;51.460;7.090;2023-08-06T08:12:52;99497.56;;;17.66;75.26
12360;BME280;6244;51.460;7.090;2023-08-06T08:17:48;99497.75;;;17.19;76.01
12360;BME280;6244;51.460;7.090;2023-08-06T08:22:45;99503.13;;;16.72;78.08
12360;BME280;6244;51.460;7.090;2023-08-06T08:27:41;99499.16;;;16.86;78.89
12360;BME280;6244;51.460;7.090;2023-08-06T08:32:39;99504.72;;;16.93;78.98
12360;BME280;6244;51.460;7.090;2023-08-06T08:37:36;99507.75;;;16.70;79.30
12360;BME280;6244;51.460;7.090;2023-08-06T08:42:32;99505.50;;;16.66;81.57
12360;BME280;6244;51.460;7.090;2023-08-06T08:47:29;99512.13;;;16.42;84.64
12360;BME280;6244;51.460;7.090;2023-08-06T08:52:28;99516.09;;;16.00;87.65
12360;BME280;6244;51.460;7.090;2023-08-06T08:57:26;99517.94;;;15.90;90.53
12360;BME280;6244;51.460;7.090;2023-08-06T09:02:24;99525.44;;;15.84;91.14
12360;BME280;6244;51.460;7.090;2023-08-06T09:07:24;99523.75;;;15.83;92.24
12360;BME280;6244;51.460;7.090;2023-08-06T09:12:22;99528.38;;;16.01;92.80
12360;BME280;6244;51.460;7.090;2023-08-06T09:17:18;99519.16;;;16.05;93.11
12360;BME280;6244;51.460;7.090;2023-08-06T09:22:15;99533.91;;;16.17;94.31
12360;BME280;6244;51.460;7.090;2023-08-06T09:27:12;99528.56;;;16.36;94.57
12360;BME280;6244;51.460;7.090;2023-08-06T09:32:11;99531.63;;;16.51;95.08
12360;BME280;6244;51.460;7.090;2023-08-06T09:37:08;99537.19;;;16.67;95.31
12360;BME280;6244;51.460;7.090;2023-08-06T09:42:06;99539.81;;;16.77;95.49
12360;BME280;6244;51.460;7.090;2023-08-06T09:47:03;99541.97;;;16.91;95.54
12360;BME280;6244;51.460;7.090;2023-08-06T09:52:01;99548.06;;;17.01;96.08
12360;BME280;6244;51.460;7.090;2023-08-06T09:56:59;99544.81;;;17.08;94.87
12360;BME280;6244;51.460;7.090;2023-08-06T10:01:56;99557.00;;;17.28;94.20
12360;BME280;6244;51.460;7.090;2023-08-06T10:06:54;99550.69;;;17.56;92.77
12360;BME280;6244;51.460;7.090;2023-08-06T10:11:52;99552.16;;;17.69;89.10
12360;BME280;6244;51.460;7.090;2023-08-06T10:16:50;99555.91;;;17.76;85.77
12360;BME280;6244;51.460;7.090;2023-08-06T10:22:07;99536.41;;;18.03;81.49
12360;BME280;6244;51.460;7.090;2023-08-06T10:27:06;99535.28;;;18.57;79.25
12360;BME280;6244;51.460;7.090;2023-08-06T10:32:03;99537.47;;;19.22;76.38
12360;BME280;6244;51.460;7.090;2023-08-06T10:37:01;99541.97;;;20.20;71.60
12360;BME280;6244;51.460;7.090;2023-08-06T10:41:57;99535.34;;;20.00;71.13
12360;BME280;6244;51.460;7.090;2023-08-06T10:46:55;99537.31;;;20.06;69.85
12360;BME280;6244;51.460;7.090;2023-08-06T10:51:52;99546.44;;;19.13;75.36
12360;BME280;6244;51.460;7.090;2023-08-06T10:56:49;99550.63;;;18.19;78.29
12360;BME280;6244;51.460;7.090;2023-08-06T11:01:46;99554.66;;;17.70;79.78
12360;BME280;6244;51.460;7.090;2023-08-06T11:06:52;99574.22;;;17.42;80.95
12360;BME280;6244;51.460;7.090;2023-08-06T11:11:49;99574.06;;;17.25;82.08
12360;BME280;6244;51.460;7.090;2023-08-06T11:16:46;99574.97;;;17.07;83.98
12360;BME280;6244;51.460;7.090;2023-08-06T11:21:44;99565.53;;;16.94;85.16
12360;BME280;6244;51.460;7.090;2023-08-06T11:26:42;99567.78;;;16.89;88.02
12360;BME280;6244;51.460;7.090;2023-08-06T11:31:39;99575.16;;;16.86;88.03
12360;BME280;6244;51.460;7.090;2023-08-06T11:36:40;99571.75;;;16.76;90.25
12360;BME280;6244;51.460;7.090;2023-08-06T11:41:38;99587.91;;;16.63;93.29
12360;BME280;6244;51.460;7.090;2023-08-06T11:46:49;99579.28;;;16.51;93.76
12360;BME280;6244;51.460;7.090;2023-08-06T11:51:47;99600.44;;;16.61;93.29
12360;BME280;6244;51.460;7.090;2023-08-06T11:56:46;99614.56;;;16.03;93.52
12360;BME280;6244;51.460;7.090;2023-08-06T12:01:42;99618.19;;;15.93;95.00
12360;BME280;6244;51.460;7.090;2023-08-06T12:06:42;99630.66;;;15.31;94.53
12360;BME280;6244;51.460;7.090;2023-08-06T12:11:39;99630.31;;;15.15;96.80
12360;BME280;6244;51.460;7.090;2023-08-06T12:16:37;99628.75;;;15.03;99.06
12360;BME280;6244;51.460;7.090;2023-08-06T12:21:33;99643.78;;;14.81;98.38
12360;BME280;6244;51.460;7.090;2023-08-06T12:26:30;99651.00;;;14.79;98.51
12360;BME280;6244;51.460;7.090;2023-08-06T12:31:26;99671.88;;;14.50;98.69
12360;BME280;6244;51.460;7.090;2023-08-06T12:36:24;99683.19;;;14.41;97.34
12360;BME280;6244;51.460;7.090;2023-08-06T12:41:21;99701.00;;;14.28;97.90
12360;BME280;6244;51.460;7.090;2023-08-06T12:46:18;99699.56;;;14.24;96.89
12360;BME280;6244;51.460;7.090;2023-08-06T12:51:14;99698.44;;;14.05;96.57
12360;BME280;6244;51.460;7.090;2023-08-06T12:56:12;99699.69;;;14.22;94.98
12360;BME280;6244;51.460;7.090;2023-08-06T13:01:09;99720.03;;;14.43;95.75
12360;BME280;6244;51.460;7.090;2023-08-06T13:06:05;99732.81;;;14.58;95.55
12360;BME280;6244;51.460;7.090;2023-08-06T13:11:03;99732.88;;;14.36;95.57
12360;BME280;6244;51.460;7.090;2023-08-06T13:16:01;99739.47;;;14.53;97.21
12360;BME280;6244;51.460;7.090;2023-08-06T13:20:58;99744.56;;;14.65;97.32
12360;BME280;6244;51.460;7.090;2023-08-06T13:25:54;99750.06;;;14.62;97.77
12360;BME280;6244;51.460;7.090;2023-08-06T13:30:51;99746.66;;;14.51;97.32
12360;BME280;6244;51.460;7.090;2023-08-06T13:35:49;99758.75;;;14.64;98.36
12360;BME280;6244;51.460;7.090;2023-08-06T13:40:46;99760.81;;;14.50;98.50
12360;BME280;6244;51.460;7.090;2023-08-06T13:45:44;99765.03;;;14.52;98.94
12360;BME280;6244;51.460;7.090;2023-08-06T13:50:41;99765.63;;;14.45;99.54
12360;BME280;6244;51.460;7.090;2023-08-06T13:55:48;99769.13;;;14.45;98.96
12360;BME280;6244;51.460;7.090;2023-08-06T14:00:45;99764.09;;;14.31;99.52
12360;BME280;6244;51.460;7.090;2023-08-06T14:05:41;99769.13;;;14.45;100.00
12360;BME280;6244;51.460;7.090;2023-08-06T14:10:39;99782.19;;;14.24;100.00
12360;BME280;6244;51.460;7.090;2023-08-06T14:15:36;99784.09;;;14.56;100.00
12360;BME280;6244;51.460;7.090;2023-08-06T14:20:34;99794.44;;;14.25;100.00
12360;BME280;6244;51.460;7.090;2023-08-06T14:25:31;99796.34;;;14.34;100.00
12360;BME280;6244;51.460;7.090;2023-08-06T14:30:29;99791.31;;;14.31;99.28
12360;BME280;6244;51.460;7.090;2023-08-06T14:35:26;99800.53;;;14.48;100.00
12360;BME280;6244;51.460;7.090;2023-08-06T14:40:22;99806.34;;;14.74;100.00
12360;BME280;6244;51.460;7.090;2023-08-06T14:45:22;99810.63;;;14.54;98.47
12360;BME280;6244;51.460;7.090;2023-08-06T14:50:20;99816.53;;;14.79;98.47
12360;BME280;6244;51.460;7.090;2023-08-06T14:55:26;99833.53;;;14.54;94.08
12360;BME280;6244;51.460;7.090;2023-08-06T15:00:23;99838.06;;;14.63;94.09
12360;BME280;6244;51.460;7.090;2023-08-06T15:05:20;99837.13;;;14.64;93.29
12360;BME280;6244;51.460;7.090;2023-08-06T15:10:17;99844.53;;;14.70;93.40
12360;BME280;6244;51.460;7.090;2023-08-06T15:15:14;99843.81;;;14.68;93.91
12360;BME280;6244;51.460;7.090;2023-08-06T15:20:11;99853.75;;;14.76;93.92
12360;BME280;6244;51.460;7.090;2023-08-06T15:25:10;99862.91;;;15.04;94.44
12360;BME280;6244;51.460;7.090;2023-08-06T15:30:07;99869.34;;;14.90;92.24
12360;BME280;6244;51.460;7.090;2023-08-06T15:35:05;99867.66;;;14.89;92.51
12360;BME280;6244;51.460;7.090;2023-08-06T15:40:03;99867.53;;;14.90;91.32
12360;BME280;6244;51.460;7.090;2023-08-06T15:45:01;99888.41;;;15.25;92.23
12360;BME280;6244;51.460;7.090;2023-08-06T15:49:58;99878.25;;;15.10;89.99
12360;BME280;6244;51.460;7.090;2023-08-06T15:54:55;99894.94;;;15.42;91.02
12360;BME280;6244;51.460;7.090;2023-08-06T15:59:54;99895.78;;;15.43;89.69
12360;BME280;6244;51.460;7.090;2023-08-06T16:04:52;99898.38;;;15.22;89.86
12360;BME280;6244;51.460;7.090;2023-08-06T16:09:49;99911.88;;;15.08;89.28
12360;BME280;6244;51.460;7.090;2023-08-06T16:14:45;99914.28;;;15.11;90.76
12360;BME280;6244;51.460;7.090;2023-08-06T16:19:42;99918.97;;;15.07;90.43
12360;BME280;6244;51.460;7.090;2023-08-06T16:24:41;99913.53;;;14.77;89.01
12360;BME280;6244;51.460;7.090;2023-08-06T16:29:37;99934.69;;;14.77;90.10
12360;BME280;6244;51.460;7.090;2023-08-06T16:34:34;99930.56;;;14.84;88.88
12360;BME280;6244;51.460;7.090;2023-08-06T16:39:31;99942.34;;;14.91;88.09
12360;BME280;6244;51.460;7.090;2023-08-06T16:44:30;99947.25;;;14.73;88.00
12360;BME280;6244;51.460;7.090;2023-08-06T16:49:27;99950.16;;;14.70;88.03
12360;BME280;6244;51.460;7.090;2023-08-06T16:54:23;99937.53;;;14.74;89.91
12360;BME280;6244;51.460;7.090;2023-08-06T16:59:20;99951.44;;;14.87;90.52
12360;BME280;6244;51.460;7.090;2023-08-06T17:04:18;99953.63;;;14.82;89.09
12360;BME280;6244;51.460;7.090;2023-08-06T17:09:14;99960.47;;;14.84;89.69
12360;BME280;6244;51.460;7.090;2023-08-06T17:14:11;99956.66;;;14.77;90.29
12360;BME280;6244;51.460;7.090;2023-08-06T17:19:08;99971.41;;;14.80;91.78
12360;BME280;6244;51.460;7.090;2023-08-06T17:24:06;99966.25;;;14.67;93.33
12360;BME280;6244;51.460;7.090;2023-08-06T17:29:02;99967.22;;;14.66;94.78
12360;BME280;6244;51.460;7.090;2023-08-06T17:33:59;99973.59;;;14.63;95.72
12360;BME280;6244;51.460;7.090;2023-08-06T17:38:55;99991.94;;;14.65;95.63
12360;BME280;6244;51.460;7.090;2023-08-06T17:43:54;100003.59;;;14.51;96.04
12360;BME280;6244;51.460;7.090;2023-08-06T17:48:50;100006.22;;;14.51;97.34
12360;BME280;6244;51.460;7.090;2023-08-06T17:53:50;100006.09;;;14.53;97.61
12360;BME280;6244;51.460;7.090;2023-08-06T17:58:47;100005.97;;;14.54;98.51
12360;BME280;6244;51.460;7.090;2023-08-06T18:03:45;100012.16;;;14.31;99.30
12360;BME280;6244;51.460;7.090;2023-08-06T18:08:45;100013.47;;;14.36;100.00
12360;BME280;6244;51.460;7.090;2023-08-06T18:13:41;100015.25;;;14.25;99.81
12360;BME280;6244;51.460;7.090;2023-08-06T18:18:38;100043.41;;;14.13;100.00
12360;BME280;6244;51.460;7.090;2023-08-06T18:23:36;100045.22;;;14.13;100.00
12360;BME280;6244;51.460;7.090;2023-08-06T18:28:33;100068.00;;;14.02;100.00
12360;BME280;6244;51.460;7.090;2023-08-06T18:33:30;100063.31;;;14.06;100.00
12360;BME280;6244;51.460;7.090;2023-08-06T18:38:27;100069.69;;;14.15;99.53
12360;BME280;6244;51.460;7.090;2023-08-06T18:43:24;100075.78;;;14.04;97.79
12360;BME280;6244;51.460;7.090;2023-08-06T18:48:23;100077.19;;;13.97;96.97
12360;BME280;6244;51.460;7.090;2023-08-06T18:53:19;100092.13;;;13.85;97.84
12360;BME280;6244;51.460;7.090;2023-08-06T18:58:16;100096.31;;;13.88;99.78
12360;BME280;6244;51.460;7.090;2023-08-06T19:03:14;100110.81;;;13.82;98.95
12360;BME280;6244;51.460;7.090;2023-08-06T19:08:11;100110.47;;;13.87;98.51
12360;BME280;6244;51.460;7.090;2023-08-06T19:13:09;100114.41;;;13.81;98.77
12360;BME280;6244;51.460;7.090;2023-08-06T19:18:06;100114.56;;;13.91;99.30
12360;BME280;6244;51.460;7.090;2023-08-06T19:23:04;100124.91;;;13.94;99.45
12360;BME280;6244;51.460;7.090;2023-08-06T19:28:00;100136.84;;;13.87;98.91
12360;BME280;6244;51.460;7.090;2023-08-06T19:32:57;100147.59;;;13.84;99.84
12360;BME280;6244;51.460;7.090;2023-08-06T19:37:53;100152.84;;;13.60;97.97
12360;BME280;6244;51.460;7.090;2023-08-06T19:42:51;100160.16;;;13.56;98.83
12360;BME280;6244;51.460;7.090;2023-08-06T19:47:48;100141.50;;;13.46;99.90
12360;BME280;6244;51.460;7.090;2023-08-06T19:52:44;100150.97;;;13.49;99.38
12360;BME280;6244;51.460;7.090;2023-08-06T19:57:41;100158.69;;;13.39;97.54
12360;BME280;6244;51.460;7.090;2023-08-06T20:02:39;100165.03;;;13.37;98.26
12360;BME280;6244;51.460;7.090;2023-08-06T20:07:35;100167.75;;;13.48;98.09
12360;BME280;6244;51.460;7.090;2023-08-06T20:12:32;100173.47;;;13.42;98.46
12360;BME280;6244;51.460;7.090;2023-08-06T20:17:28;100171.03;;;13.39;96.59
12360;BME280;6244;51.460;7.090;2023-08-06T20:22:26;100175.44;;;13.13;97.65
12360;BME280;6244;51.460;7.090;2023-08-06T20:27:23;100168.31;;;13.15;98.88
12360;BME280;6244;51.460;7.090;2023-08-06T20:32:19;100175.28;;;13.29;97.26
12360;BME280;6244;51.460;7.090;2023-08-06T20:37:16;100161.16;;;13.30;97.08
12360;BME280;6244;51.460;7.090;2023-08-06T20:42:15;100177.69;;;13.32;97.71
12360;BME280;6244;51.460;7.090;2023-08-06T20:47:12;100170.41;;;13.10;96.80
12360;BME280;6244;51.460;7.090;2023-08-06T20:52:08;100171.50;;;13.20;97.27
12360;BME280;6244;51.460;7.090;2023-08-06T20:57:06;100171.47;;;13.07;96.07
12360;BME280;6244;51.460;7.090;2023-08-06T21:02:04;100180.41;;;12.92;95.86
12360;BME280;6244;51.460;7.090;2023-08-06T21:07:01;100174.31;;;12.79;97.47
12360;BME280;6244;51.460;7.090;2023-08-06T21:11:58;100172.41;;;12.81;98.10
12360;BME280;6244;51.460;7.090;2023-08-06T21:16:55;100183.34;;;13.00;97.29
12360;BME280;6244;51.460;7.090;2023-08-06T21:21:52;100179.47;;;12.93;97.12
12360;BME280;6244;51.460;7.090;2023-08-06T21:26:49;100193.47;;;12.81;98.63
12360;BME280;6244;51.460;7.090;2023-08-06T21:31:46;100193.47;;;13.06;98.38
12360;BME280;6244;51.460;7.090;2023-08-06T21:36:42;100194.00;;;12.99;98.40
12360;BME280;6244;51.460;7.090;2023-08-06T21:41:40;100194.31;;;13.07;98.36
12360;BME280;6244;51.460;7.090;2023-08-06T21:46:37;100202.00;;;12.97;98.65
12360;BME280;6244;51.460;7.090;2023-08-06T21:51:33;100195.28;;;12.93;98.77
12360;BME280;6244;51.460;7.090;2023-08-06T21:56:30;100197.47;;;12.86;99.97
12360;BME280;6244;51.460;7.090;2023-08-06T22:01:28;100200.94;;;12.74;99.33
12360;BME280;6244;51.460;7.090;2023-08-06T22:06:24;100187.34;;;12.68;100.00
12360;BME280;6244;51.460;7.090;2023-08-06T22:11:21;100188.81;;;12.72;100.00
12360;BME280;6244;51.460;7.090;2023-08-06T22:16:18;100208.91;;;12.60;100.00
12360;BME280;6244;51.460;7.090;2023-08-06T22:21:16;100201.19;;;12.44;100.00
12360;BME280;6244;51.460;7.090;2023-08-06T22:26:12;100203.28;;;12.52;100.00
12360;BME280;6244;51.460;7.090;2023-08-06T22:31:09;100181.06;;;12.30;100.00
12360;BME280;6244;51.460;7.090;2023-08-06T22:36:10;100188.31;;;12.40;100.00
12360;BME280;6244;51.460;7.090;2023-08-06T22:41:08;100188.13;;;12.43;100.00
12360;BME280;6244;51.460;7.090;2023-08-06T22:46:04;100182.03;;;12.42;100.00
12360;BME280;6244;51.460;7.090;2023-08-06T22:51:01;100180.34;;;12.41;100.00
12360;BME280;6244;51.460;7.090;2023-08-06T22:55:57;100184.13;;;12.50;100.00
12360;BME280;6244;51.460;7.090;2023-08-06T23:00:55;100184.53;;;12.31;100.00
12360;BME280;6244;51.460;7.090;2023-08-06T23:05:52;100179.88;;;12.22;100.00
12360;BME280;6244;51.460;7.090;2023-08-06T23:10:48;100174.84;;;12.31;100.00
12360;BME280;6244;51.460;7.090;2023-08-06T23:15:45;100162.16;;;12.11;100.00
12360;BME280;6244;51.460;7.090;2023-08-06T23:20:44;100168.34;;;12.10;100.00
12360;BME280;6244;51.460;7.090;2023-08-06T23:25:40;100157.31;;;12.05;100.00
12360;BME280;6244;51.460;7.090;2023-08-06T23:30:37;100163.25;;;12.21;100.00
12360;BME280;6244;51.460;7.090;2023-08-06T23:35:49;100158.28;;;12.17;100.00
12360;BME280;6244;51.460;7.090;2023-08-06T23:40:47;100156.03;;;12.11;100.00
12360;BME280;6244;51.460;7.090;2023-08-06T23:45:44;100152.69;;;12.09;100.00
12360;BME280;6244;51.460;7.090;2023-08-06T23:50:40;100164.50;;;12.16;100.00
12360;BME280;6244;51.460;7.090;2023-08-06T23:55:38;100160.06;;;12.16;100.00
